createdAt,value
2018-01-16T00:02:11.710Z,5.10
2018-01-16T00:04:39.844Z,5.10
2018-01-16T00:07:07.975Z,5.10
2018-01-16T00:09:36.860Z,5.10
2018-01-16T00:12:05.759Z,5.20
2018-01-16T00:14:35.121Z,5.30
2018-01-16T00:17:03.255Z,5.30
2018-01-16T00:19:31.370Z,5.30
2018-01-16T00:21:59.504Z,5.30
2018-01-16T00:24:27.614Z,5.30
2018-01-16T00:26:55.738Z,5.20
2018-01-16T00:29:23.854Z,5.30
2018-01-16T00:31:52.006Z,5.30
2018-01-16T00:34:20.129Z,5.30
2018-01-16T00:36:48.268Z,5.30
2018-01-16T00:39:16.381Z,5.30
2018-01-16T00:41:44.510Z,5.30
2018-01-16T00:44:12.619Z,5.30
2018-01-16T00:46:41.535Z,5.30
2018-01-16T00:49:10.428Z,5.30
2018-01-16T00:51:39.334Z,5.40
2018-01-16T00:54:07.459Z,5.30
2018-01-16T00:56:35.563Z,5.40
2018-01-16T00:59:04.457Z,5.60
2018-01-16T01:01:32.573Z,5.50
2018-01-16T01:04:00.765Z,5.60
2018-01-16T01:06:28.878Z,5.60
2018-01-16T01:08:57.034Z,5.80
2018-01-16T01:11:25.166Z,5.80
2018-01-16T01:13:53.300Z,5.90
2018-01-16T01:16:22.195Z,5.90
2018-01-16T01:18:51.082Z,5.90
2018-01-16T01:21:19.958Z,6.00
2018-01-16T01:23:48.859Z,6.00
2018-01-16T01:26:17.746Z,6.10
2018-01-16T01:28:46.671Z,6.10
2018-01-16T01:31:14.771Z,6.10
2018-01-16T01:33:42.922Z,6.10
2018-01-16T01:36:11.034Z,6.10
2018-01-16T01:38:39.159Z,6.10
2018-01-16T01:41:07.283Z,6.10
2018-01-16T01:43:35.434Z,6.10
2018-01-16T01:46:03.573Z,6.10
2018-01-16T01:48:31.717Z,6.00
2018-01-16T01:51:01.076Z,6.00
2018-01-16T01:53:29.222Z,6.00
2018-01-16T01:55:57.342Z,5.90
2018-01-16T01:58:25.470Z,5.90
2018-01-16T02:00:53.587Z,5.90
2018-01-16T02:03:21.721Z,5.90
2018-01-16T02:05:49.826Z,5.90
2018-01-16T02:08:17.976Z,6.00
2018-01-16T02:10:46.083Z,5.90
2018-01-16T02:13:14.213Z,6.00
2018-01-16T02:15:43.082Z,6.00
2018-01-16T02:18:11.209Z,6.00
2018-01-16T02:20:39.331Z,6.10
2018-01-16T02:23:07.469Z,6.10
2018-01-16T02:25:35.567Z,6.10
2018-01-16T02:28:04.584Z,6.10
2018-01-16T02:30:32.689Z,6.10
2018-01-16T02:33:00.824Z,6.10
2018-01-16T02:35:28.930Z,6.00
2018-01-16T02:37:57.072Z,6.00
2018-01-16T02:40:25.183Z,6.00
2018-01-16T02:42:53.342Z,6.10
2018-01-16T02:45:21.468Z,6.10
2018-01-16T02:47:50.367Z,6.10
2018-01-16T02:50:18.498Z,6.10
2018-01-16T02:52:46.615Z,6.10
2018-01-16T02:55:15.493Z,6.00
2018-01-16T02:57:43.705Z,6.00
2018-01-16T03:00:11.805Z,6.00
2018-01-16T03:02:39.958Z,6.10
2018-01-16T03:05:08.057Z,6.10
2018-01-16T03:07:36.187Z,6.10
2018-01-16T03:10:04.298Z,6.20
2018-01-16T03:12:32.431Z,6.10
2018-01-16T03:15:00.525Z,6.10
2018-01-16T03:17:28.660Z,6.00
2018-01-16T03:19:57.543Z,6.10
2018-01-16T03:22:25.666Z,6.20
2018-01-16T03:24:54.076Z,6.20
2018-01-16T03:27:22.212Z,6.20
2018-01-16T03:29:50.352Z,6.30
2018-01-16T03:32:19.228Z,6.20
2018-01-16T03:34:47.396Z,6.20
2018-01-16T03:37:15.507Z,6.20
2018-01-16T03:39:43.643Z,6.10
2018-01-16T03:42:11.750Z,6.10
2018-01-16T03:44:39.907Z,6.00
2018-01-16T03:47:08.770Z,6.00
2018-01-16T03:49:36.903Z,6.00
2018-01-16T03:52:05.013Z,6.10
2018-01-16T03:54:33.159Z,6.10
2018-01-16T03:57:01.271Z,6.10
2018-01-16T03:59:29.434Z,6.00
2018-01-16T04:01:57.548Z,6.00
2018-01-16T04:04:26.449Z,6.10
2018-01-16T04:06:54.569Z,6.10
2018-01-16T04:09:22.695Z,6.00
2018-01-16T04:11:50.814Z,6.10
2018-01-16T04:14:18.939Z,6.00
2018-01-16T04:16:47.052Z,6.10
2018-01-16T04:19:15.187Z,6.10
2018-01-16T04:21:43.342Z,6.20
2018-01-16T04:24:12.258Z,6.20
2018-01-16T04:26:40.371Z,6.20
2018-01-16T04:29:08.494Z,6.10
2018-01-16T04:31:36.603Z,6.20
2018-01-16T04:34:05.078Z,6.20
2018-01-16T04:36:33.194Z,6.30
2018-01-16T04:39:02.564Z,6.30
2018-01-16T04:41:30.709Z,6.30
2018-01-16T04:43:58.846Z,6.20
2018-01-16T04:46:27.727Z,6.20
2018-01-16T04:48:55.868Z,6.20
2018-01-16T04:51:24.014Z,6.10
2018-01-16T04:53:52.146Z,6.00
2018-01-16T04:56:20.269Z,6.00
2018-01-16T04:58:48.420Z,6.10
2018-01-16T05:01:17.300Z,6.20
2018-01-16T05:03:46.204Z,6.30
2018-01-16T05:06:15.111Z,6.20
2018-01-16T05:08:43.261Z,6.20
2018-01-16T05:11:12.140Z,6.10
2018-01-16T05:13:40.288Z,6.10
2018-01-16T05:16:08.391Z,6.00
2018-01-16T05:18:37.283Z,6.00
2018-01-16T05:21:06.156Z,6.10
2018-01-16T05:23:34.288Z,6.10
2018-01-16T05:26:02.755Z,6.10
2018-01-16T05:28:30.944Z,6.00
2018-01-16T05:30:59.047Z,5.90
2018-01-16T05:33:27.202Z,5.90
2018-01-16T05:35:55.326Z,5.90
2018-01-16T05:38:24.219Z,5.90
2018-01-16T05:40:53.109Z,5.80
2018-01-16T05:43:22.024Z,5.80
2018-01-16T05:45:50.127Z,5.80
2018-01-16T05:48:18.284Z,5.70
2018-01-16T05:50:46.395Z,5.60
2018-01-16T05:53:14.527Z,5.80
2018-01-16T05:55:42.732Z,6.00
2018-01-16T05:58:10.821Z,6.00
2018-01-16T06:00:38.960Z,5.90
2018-01-16T06:03:07.111Z,5.90
2018-01-16T06:05:35.233Z,5.90
2018-01-16T06:08:03.349Z,5.90
2018-01-16T06:10:31.472Z,5.90
2018-01-16T06:12:59.591Z,6.00
2018-01-16T06:15:27.719Z,5.90
2018-01-16T06:17:55.838Z,5.90
2018-01-16T06:20:24.486Z,5.80
2018-01-16T06:22:52.591Z,5.80
2018-01-16T06:25:21.490Z,5.90
2018-01-16T06:27:49.595Z,5.90
2018-01-16T06:30:17.751Z,6.00
2018-01-16T06:32:45.861Z,5.90
2018-01-16T06:35:13.993Z,5.90
2018-01-16T06:37:42.110Z,6.00
2018-01-16T06:40:10.259Z,5.90
2018-01-16T06:42:38.371Z,5.90
2018-01-16T06:45:06.501Z,5.80
2018-01-16T06:47:34.591Z,5.80
2018-01-16T06:50:03.182Z,5.90
2018-01-16T06:52:31.286Z,5.80
2018-01-16T06:55:00.219Z,5.90
2018-01-16T06:57:28.336Z,5.90
2018-01-16T06:59:56.471Z,5.90
2018-01-16T07:02:24.612Z,5.80
2018-01-16T07:04:53.531Z,5.80
2018-01-16T07:07:21.652Z,5.80
2018-01-16T07:09:49.781Z,5.90
2018-01-16T07:12:17.895Z,5.80
2018-01-16T07:14:46.029Z,5.90
2018-01-16T07:17:14.929Z,5.90
2018-01-16T07:19:43.126Z,5.90
2018-01-16T07:22:17.679Z,5.80
2018-01-16T07:24:46.582Z,5.60
2018-01-16T07:27:15.475Z,5.60
2018-01-16T07:29:44.367Z,5.60
2018-01-16T07:32:12.478Z,5.60
2018-01-16T07:34:40.628Z,5.60
2018-01-16T07:37:08.723Z,5.50
2018-01-16T07:39:36.868Z,5.60
2018-01-16T07:42:04.984Z,5.70
2018-01-16T07:44:33.138Z,5.60
2018-01-16T07:47:01.273Z,5.60
2018-01-16T07:49:29.560Z,5.80
2018-01-16T07:51:57.665Z,5.90
2018-01-16T07:54:25.810Z,6.00
2018-01-16T07:56:54.686Z,6.00
2018-01-16T07:59:23.575Z,6.00
2018-01-16T08:01:52.447Z,6.00
2018-01-16T08:04:20.574Z,6.00
2018-01-16T08:06:48.726Z,6.10
2018-01-16T08:09:17.617Z,6.10
2018-01-16T08:11:45.721Z,6.10
2018-01-16T08:14:13.838Z,6.30
2018-01-16T08:16:41.941Z,6.50
2018-01-16T08:19:10.070Z,6.60
2018-01-16T08:21:38.191Z,6.70
2018-01-16T08:24:07.123Z,6.50
2018-01-16T08:26:35.245Z,6.50
2018-01-16T08:29:03.357Z,6.30
2018-01-16T08:31:31.482Z,6.30
2018-01-16T08:33:59.593Z,6.40
2018-01-16T08:36:27.734Z,6.30
2018-01-16T08:38:55.879Z,6.30
2018-01-16T08:41:24.808Z,6.30
2018-01-16T08:43:52.912Z,6.30
2018-01-16T08:46:21.057Z,6.20
2018-01-16T08:48:49.166Z,6.10
2018-01-16T08:51:17.334Z,6.10
2018-01-16T08:53:45.449Z,6.00
2018-01-16T08:56:14.343Z,5.90
2018-01-16T08:58:43.206Z,5.70
2018-01-16T09:01:11.374Z,5.70
2018-01-16T09:03:39.487Z,5.70
2018-01-16T09:06:08.400Z,5.70
2018-01-16T09:08:36.537Z,5.70
2018-01-16T09:11:05.436Z,6.00
2018-01-16T09:13:34.830Z,6.00
2018-01-16T09:16:04.193Z,6.00
2018-01-16T09:18:32.324Z,6.00
2018-01-16T09:21:01.187Z,5.90
2018-01-16T09:23:29.330Z,5.90
2018-01-16T09:25:57.447Z,6.10
2018-01-16T09:28:26.353Z,6.00
2018-01-16T09:30:55.247Z,6.20
2018-01-16T09:33:23.388Z,6.20
2018-01-16T09:35:51.508Z,6.30
2018-01-16T09:38:19.641Z,6.60
2018-01-16T09:40:47.746Z,6.70
2018-01-16T09:43:15.891Z,6.70
2018-01-16T09:45:44.811Z,7.40
2018-01-16T09:48:12.951Z,7.40
2018-01-16T09:50:41.858Z,7.80
2018-01-16T09:53:10.744Z,7.80
2018-01-16T09:55:39.662Z,7.90
2018-01-16T09:58:07.802Z,7.80
2018-01-16T10:00:36.269Z,7.90
2018-01-16T10:03:06.834Z,8.00
2018-01-16T10:05:35.345Z,8.00
2018-01-16T10:08:09.008Z,8.00
2018-01-16T10:10:43.570Z,8.10
2018-01-16T10:13:17.337Z,8.00
2018-01-16T10:15:51.187Z,8.00
2018-01-16T10:18:25.950Z,7.80
2018-01-16T10:20:59.787Z,7.80
2018-01-16T10:23:34.383Z,7.80
2018-01-16T10:26:08.147Z,7.80
2018-01-16T10:28:41.889Z,7.60
2018-01-16T10:31:15.647Z,7.50
2018-01-16T10:33:50.260Z,7.10
2018-01-16T10:36:24.112Z,7.10
2018-01-16T10:38:52.234Z,7.00
2018-01-16T10:41:20.361Z,6.90
2018-01-16T10:43:48.961Z,6.90
2018-01-16T10:46:17.099Z,6.80
2018-01-16T10:48:45.271Z,6.80
2018-01-16T10:51:13.410Z,6.80
2018-01-16T10:53:42.375Z,6.50
2018-01-16T10:56:10.527Z,6.40
2018-01-16T10:58:38.675Z,6.40
2018-01-16T11:01:06.805Z,6.20
2018-01-16T11:03:35.681Z,6.10
2018-01-16T11:06:04.141Z,6.10
2018-01-16T11:08:33.068Z,6.30
2018-01-16T11:11:01.983Z,6.30
2018-01-16T11:13:30.106Z,6.30
2018-01-16T11:15:58.233Z,6.20
2018-01-16T11:18:26.323Z,6.20
2018-01-16T11:20:54.464Z,6.30
2018-01-16T11:23:23.332Z,6.40
2018-01-16T11:25:51.466Z,6.40
2018-01-16T11:28:19.628Z,6.50
2018-01-16T11:30:48.520Z,6.70
2018-01-16T11:33:17.386Z,6.70
2018-01-16T11:35:45.536Z,6.70
2018-01-16T11:38:13.638Z,6.80
2018-01-16T11:40:41.787Z,6.80
2018-01-16T11:43:10.666Z,6.60
2018-01-16T11:45:38.797Z,6.60
2018-01-16T11:48:06.919Z,6.40
2018-01-16T11:50:35.824Z,6.30
2018-01-16T11:53:04.685Z,6.10
2018-01-16T11:55:32.819Z,6.10
2018-01-16T11:58:00.931Z,6.20
2018-01-16T12:00:29.957Z,5.90
2018-01-16T12:02:58.818Z,5.80
2018-01-16T12:05:26.968Z,5.70
2018-01-16T12:07:56.304Z,5.40
2018-01-16T12:10:24.424Z,5.40
2018-01-16T12:12:52.531Z,5.40
2018-01-16T12:15:20.680Z,5.20
2018-01-16T12:17:48.785Z,5.30
2018-01-16T12:20:16.914Z,5.30
2018-01-16T12:22:45.019Z,5.40
2018-01-16T12:25:13.140Z,5.30
2018-01-16T12:27:41.282Z,5.40
2018-01-16T12:30:09.378Z,5.40
2018-01-16T12:32:37.527Z,5.30
2018-01-16T12:35:05.633Z,5.00
2018-01-16T12:37:33.769Z,5.00
2018-01-16T12:40:02.164Z,4.90
2018-01-16T12:42:30.453Z,4.90
2018-01-16T12:44:59.333Z,5.10
2018-01-16T12:47:27.487Z,5.10
2018-01-16T12:49:55.590Z,5.20
2018-01-16T12:52:23.741Z,5.30
2018-01-16T12:54:51.853Z,5.40
2018-01-16T12:57:19.974Z,5.50
2018-01-16T12:59:48.086Z,5.60
2018-01-16T13:02:16.216Z,5.50
2018-01-16T13:04:44.366Z,5.50
2018-01-16T13:07:12.521Z,5.60
2018-01-16T13:09:40.642Z,5.80
2018-01-16T13:12:08.772Z,5.80
2018-01-16T13:14:36.959Z,5.70
2018-01-16T13:17:05.091Z,5.80
2018-01-16T13:19:33.965Z,5.80
2018-01-16T13:22:02.237Z,5.80
2018-01-16T13:24:31.039Z,5.80
2018-01-16T13:26:59.942Z,5.90
2018-01-16T13:29:28.826Z,6.00
2018-01-16T13:31:57.751Z,5.70
2018-01-16T13:34:25.855Z,5.80
2018-01-16T13:36:53.983Z,5.80
2018-01-16T13:39:22.096Z,5.80
2018-01-16T13:41:50.213Z,5.90
2018-01-16T13:44:19.085Z,6.00
2018-01-16T13:46:47.203Z,6.00
2018-01-16T13:49:15.315Z,6.10
2018-01-16T13:51:43.443Z,6.10
2018-01-16T13:54:11.553Z,6.00
2018-01-16T13:56:39.700Z,6.00
2018-01-16T13:59:07.808Z,6.00
2018-01-16T14:01:35.940Z,5.90
2018-01-16T14:04:04.055Z,5.90
2018-01-16T14:06:32.198Z,6.00
2018-01-16T14:09:00.332Z,6.10
2018-01-16T14:11:28.983Z,6.10
2018-01-16T14:13:57.108Z,6.10
2018-01-16T14:16:25.285Z,6.00
2018-01-16T14:18:53.403Z,5.90
2018-01-16T14:21:21.544Z,5.90
2018-01-16T14:23:49.682Z,5.80
2018-01-16T14:26:17.803Z,5.80
2018-01-16T14:28:45.902Z,5.60
2018-01-16T14:31:14.023Z,5.50
2018-01-16T14:33:42.120Z,5.50
2018-01-16T14:36:10.239Z,5.50
2018-01-16T14:38:38.354Z,5.40
2018-01-16T14:41:06.526Z,5.60
2018-01-16T14:43:34.620Z,5.50
2018-01-16T14:46:03.854Z,5.40
2018-01-16T14:48:32.040Z,5.40
2018-01-16T14:51:00.166Z,5.50
2018-01-16T14:56:03.897Z,5.60
2018-01-16T14:58:32.096Z,5.60
2018-01-16T15:01:00.211Z,5.50
2018-01-16T15:03:28.352Z,5.50
2018-01-16T15:05:56.465Z,5.60
2018-01-16T15:08:24.576Z,5.70
2018-01-16T15:10:52.678Z,5.70
2018-01-16T15:13:20.818Z,5.40
2018-01-16T15:15:48.918Z,5.40
2018-01-16T15:18:17.040Z,5.50
2018-01-16T15:20:45.919Z,5.50
2018-01-16T15:23:14.058Z,5.50
2018-01-16T15:25:42.175Z,5.70
2018-01-16T15:28:10.318Z,5.70
2018-01-16T15:30:38.417Z,5.70
2018-01-16T15:33:06.628Z,5.60
2018-01-16T15:35:34.718Z,5.60
2018-01-16T15:38:02.842Z,5.40
2018-01-16T15:40:31.725Z,5.30
2018-01-16T15:42:59.853Z,5.30
2018-01-16T15:45:27.951Z,5.20
2018-01-16T15:47:56.073Z,5.10
2018-01-16T15:50:24.198Z,4.90
2018-01-16T15:52:52.335Z,4.90
2018-01-16T15:55:20.438Z,5.10
2018-01-16T15:57:48.565Z,5.20
2018-01-16T16:00:16.661Z,4.90
2018-01-16T16:02:44.801Z,4.80
2018-01-16T16:05:12.910Z,4.90
2018-01-16T16:07:41.054Z,4.90
2018-01-16T16:10:10.351Z,4.90
2018-01-16T16:12:39.245Z,4.80
2018-01-16T16:15:07.353Z,4.80
2018-01-16T16:17:35.495Z,4.80
2018-01-16T16:20:03.593Z,4.70
2018-01-16T16:22:31.789Z,4.70
2018-01-16T16:24:59.886Z,4.60
2018-01-16T16:27:28.804Z,4.30
2018-01-16T16:29:56.901Z,4.20
2018-01-16T16:32:25.017Z,4.30
2018-01-16T16:34:53.144Z,4.20
2018-01-16T16:37:21.267Z,4.00
2018-01-16T16:39:49.373Z,3.90
2018-01-16T16:42:17.797Z,3.90
2018-01-16T16:44:46.706Z,4.00
2018-01-16T16:47:14.839Z,3.90
2018-01-16T16:49:43.139Z,4.00
2018-01-16T16:52:11.283Z,4.00
2018-01-16T16:54:39.375Z,4.10
2018-01-16T16:57:07.611Z,4.10
2018-01-16T16:59:35.960Z,4.10
2018-01-16T17:02:05.471Z,4.40
2018-01-16T17:04:34.374Z,4.30
2018-01-16T17:07:03.692Z,4.30
2018-01-16T17:09:31.792Z,4.30
2018-01-16T17:12:00.322Z,4.40
2018-01-16T17:14:28.668Z,4.40
2018-01-16T17:16:56.891Z,4.40
2018-01-16T17:19:25.065Z,4.60
2018-01-16T17:21:53.173Z,4.60
2018-01-16T17:24:21.318Z,4.50
2018-01-16T17:26:49.413Z,4.50
2018-01-16T17:29:17.581Z,4.50
2018-01-16T17:31:45.689Z,4.40
2018-01-16T17:34:13.862Z,4.40
2018-01-16T17:36:42.012Z,4.40
2018-01-16T17:39:10.218Z,4.40
2018-01-16T17:41:38.336Z,4.70
2018-01-16T17:44:06.453Z,4.60
2018-01-16T17:46:34.566Z,4.50
2018-01-16T17:49:03.467Z,4.10
2018-01-16T17:51:31.591Z,4.10
2018-01-16T17:53:59.717Z,4.10
2018-01-16T17:56:27.825Z,4.20
2018-01-16T17:58:56.424Z,4.20
2018-01-16T18:01:24.523Z,4.20
2018-01-16T18:03:53.410Z,4.00
2018-01-16T18:06:23.066Z,4.00
2018-01-16T18:08:51.264Z,4.00
2018-01-16T18:11:19.401Z,3.90
2018-01-16T18:13:47.615Z,3.90
2018-01-16T18:16:15.709Z,3.90
2018-01-16T18:18:44.657Z,3.90
2018-01-16T18:21:12.789Z,3.90
2018-01-16T18:23:41.753Z,3.70
2018-01-16T18:26:09.886Z,3.70
2018-01-16T18:28:38.116Z,3.70
2018-01-16T18:31:07.456Z,3.40
2018-01-16T18:33:35.598Z,3.50
2018-01-16T18:36:04.557Z,3.50
2018-01-16T18:38:32.709Z,3.50
2018-01-16T18:41:00.868Z,3.50
2018-01-16T18:43:29.018Z,3.50
2018-01-16T18:45:57.915Z,3.50
2018-01-16T18:48:26.054Z,3.50
2018-01-16T18:50:54.195Z,3.60
2018-01-16T18:53:22.366Z,3.50
2018-01-16T18:55:50.620Z,3.40
2018-01-16T18:58:18.817Z,3.60
2018-01-16T19:00:48.371Z,3.70
2018-01-16T19:03:16.706Z,3.80
2018-01-16T19:05:44.793Z,3.90
2018-01-16T19:08:12.922Z,4.10
2018-01-16T19:10:41.193Z,4.30
2018-01-16T19:13:09.358Z,4.20
2018-01-16T19:15:38.288Z,4.10
2018-01-16T19:18:06.442Z,4.10
2018-01-16T19:20:34.562Z,4.20
2018-01-16T19:23:02.711Z,4.40
2018-01-16T19:25:30.847Z,4.50
2018-01-16T19:27:59.038Z,4.60
2018-01-16T19:30:27.152Z,4.40
2018-01-16T19:32:55.325Z,4.50
2018-01-16T19:35:23.501Z,4.40
2018-01-16T19:37:51.640Z,4.30
2018-01-16T19:40:19.743Z,4.30
2018-01-16T19:42:48.130Z,4.50
2018-01-16T19:45:16.412Z,4.50
2018-01-16T19:47:44.549Z,4.60
2018-01-16T19:50:12.765Z,4.60
2018-01-16T19:52:40.910Z,4.60
2018-01-16T19:55:09.241Z,4.50
2018-01-16T19:57:38.328Z,4.20
2018-01-16T20:00:06.972Z,4.20
2018-01-16T20:02:38.326Z,4.10
2018-01-16T20:05:06.808Z,4.20
2018-01-16T20:07:35.034Z,4.20
2018-01-16T20:10:03.888Z,4.20
2018-01-16T20:12:33.193Z,4.10
2018-01-16T20:15:01.330Z,4.10
2018-01-16T20:17:29.769Z,4.10
2018-01-16T20:19:57.961Z,4.20
2018-01-16T20:22:26.083Z,4.00
2018-01-16T20:24:54.822Z,4.20
2018-01-16T20:27:23.030Z,4.30
2018-01-16T20:29:51.172Z,4.30
2018-01-16T20:32:19.285Z,4.20
2018-01-16T20:34:47.414Z,4.30
2018-01-16T20:37:15.692Z,4.30
2018-01-16T20:39:44.865Z,4.20
2018-01-16T20:42:13.344Z,4.20
2018-01-16T20:44:41.845Z,4.50
2018-01-16T20:47:10.073Z,4.30
2018-01-16T20:49:38.466Z,4.30
2018-01-16T20:52:06.657Z,4.30
2018-01-16T20:54:34.785Z,4.20
2018-01-16T20:57:02.880Z,4.10
2018-01-16T20:59:31.113Z,4.20
2018-01-16T21:01:59.227Z,4.20
2018-01-16T21:04:27.346Z,4.20
2018-01-16T21:06:56.218Z,4.10
2018-01-16T21:09:24.611Z,4.20
2018-01-16T21:11:52.734Z,4.20
2018-01-16T21:14:21.129Z,4.20
2018-01-16T21:16:50.343Z,4.20
2018-01-16T21:19:18.546Z,4.20
2018-01-16T21:21:47.563Z,4.10
2018-01-16T21:24:16.541Z,4.30
2018-01-16T21:26:44.997Z,4.30
2018-01-16T21:29:13.237Z,4.30
2018-01-16T21:31:41.337Z,4.20
2018-01-16T21:34:09.477Z,4.30
2018-01-16T21:36:37.625Z,4.30
2018-01-16T21:39:05.717Z,4.30
2018-01-16T21:41:33.821Z,4.30
2018-01-16T21:44:01.940Z,4.40
2018-01-16T21:46:30.048Z,4.50
2018-01-16T21:48:59.796Z,4.20
2018-01-16T21:51:28.673Z,4.10
2018-01-16T21:53:56.810Z,4.10
2018-01-16T21:56:25.684Z,4.00
2018-01-16T21:58:53.810Z,4.00
2018-01-16T22:01:21.907Z,4.10
2018-01-16T22:03:50.796Z,4.10
2018-01-16T22:06:18.902Z,4.10
2018-01-16T22:08:47.022Z,4.20
2018-01-16T22:11:15.117Z,4.30
2018-01-16T22:13:44.011Z,4.20
2018-01-16T22:16:12.878Z,4.40
2018-01-16T22:18:41.038Z,4.30
2018-01-16T22:21:09.150Z,4.20
2018-01-16T22:23:37.281Z,4.20
2018-01-16T22:26:05.390Z,4.10
2018-01-16T22:28:34.258Z,3.90
2018-01-16T22:31:02.434Z,3.90
2018-01-16T22:33:30.499Z,4.00
2018-01-16T22:35:58.625Z,3.90
2018-01-16T22:38:26.742Z,4.00
2018-01-16T22:40:54.906Z,4.00
2018-01-16T22:43:23.002Z,4.00
2018-01-16T22:45:51.117Z,3.90
2018-01-16T22:48:19.223Z,4.10
2018-01-16T22:50:47.346Z,4.00
2018-01-16T22:53:15.450Z,4.10
2018-01-16T22:55:43.597Z,3.90
2018-01-16T22:58:11.693Z,3.80
2018-01-16T23:00:39.830Z,3.90
2018-01-16T23:03:07.930Z,4.10
2018-01-16T23:05:36.082Z,4.00
2018-01-16T23:08:04.383Z,4.20
2018-01-16T23:10:32.519Z,4.10
2018-01-16T23:13:00.700Z,4.10
2018-01-16T23:15:28.992Z,4.10
2018-01-16T23:17:57.089Z,4.10
2018-01-16T23:20:25.214Z,3.90
2018-01-16T23:22:53.312Z,3.90
2018-01-16T23:25:21.479Z,3.90
2018-01-16T23:27:51.001Z,3.90
2018-01-16T23:30:19.892Z,3.90
2018-01-16T23:32:48.000Z,3.90
2018-01-16T23:35:16.150Z,3.80
2018-01-16T23:37:45.034Z,3.50
2018-01-16T23:40:13.179Z,3.50
2018-01-16T23:42:42.071Z,3.70
2018-01-16T23:45:10.997Z,3.60
2018-01-16T23:47:39.108Z,3.60
2018-01-16T23:50:08.035Z,3.60
2018-01-16T23:52:36.130Z,3.60
2018-01-16T23:55:04.254Z,3.70
2018-01-16T23:57:32.380Z,3.70
